7WI7 weather

CLOSED Charlies Airport
Medford, Wisconsin, United States

Public forecast

Using degrees Fahrenheit for public forecast. Weather courtesy of forecast.io.

Closest aviation weather report (METAR) to Charlies Airport

Closest report is Taylor County Airport, 7.4 nm (13.7 km) WSW. Retrieved 2020/02/22 01:15 UTC (24 minutes ago):

KMDZ 220115Z AUTO 24007KT 10SM CLR M02/M06 A3008 RMK AO2 T10251061

Closest aviation forecast (TAF) to Charlies Airport

Closest forecast is Wausau Downtown Airport, 26.2 nm (48.5 km) ESE. Retrieved 2020-02-22 00:27 UTC (1 hour ago):

TAF KAUW 212325Z 2200/2224 25012G20KT P6SM SKC WS020/26045KT FM220400 25008KT P6SM SKC WS016/27035KT FM220600 24005KT P6SM SKC